Time;durP1;ratioP1;P1;durP2;ratioP2;P2;SDS_P1;SDS_P2;PMS_P1;PMS_P2;Temp;Humidity;BMP_temperature;BMP_pressure;BME280_temperature;BME280_humidity;BME280_pressure;Samples;Min_cycle;Max_cycle;Signal;HPM_P1;HPM_P2
2023/10/10 00:02:06;;;;;;;16.25;4.10;;;;;;;;;;5114120;28;20413;-55
2023/10/10 00:04:34;;;;;;;13.95;3.75;;;;;;;;;;5106311;28;20043;-53
2023/10/10 00:07:07;;;;;;;11.90;3.90;;;;;;;;;;5113931;28;20077;-56
2023/10/10 00:09:33;;;;;;;10.65;3.70;;;;;;;;;;5118040;27;20040;-55
2023/10/10 00:12:02;;;;;;;15.40;4.45;;;;;;;;;;5111356;28;20510;-52
2023/10/10 00:14:29;;;;;;;9.90;3.83;;;;;;;;;;5113846;28;20054;-55
2023/10/10 00:16:59;;;;;;;14.88;4.45;;;;;;;;;;5113878;28;20523;-56
2023/10/10 00:19:29;;;;;;;12.02;4.88;;;;;;;;;;5105089;28;20090;-52
2023/10/10 00:21:56;;;;;;;13.40;3.80;;;;;;;;;;5113668;28;20402;-52
2023/10/10 00:24:26;;;;;;;13.32;3.95;;;;;;;;;;5113628;28;20574;-50
2023/10/10 00:26:52;;;;;;;10.50;3.35;;;;;;;;;;5113699;28;20138;-51
2023/10/10 00:29:26;;;;;;;10.00;3.53;;;;;;;;;;5111446;28;20423;-50
2023/10/10 00:32:05;;;;;;;13.38;4.13;;;;;;;;;;5092971;28;20067;-50
2023/10/10 00:34:33;;;;;;;15.48;4.70;;;;;;;;;;5105105;28;20051;-50
2023/10/10 00:37:07;;;;;;;18.10;4.18;;;;;;;;;;5097010;28;20040;-50
2023/10/10 00:39:35;;;;;;;12.35;4.10;;;;;;;;;;5113857;28;20398;-50
2023/10/10 00:42:05;;;;;;;14.23;3.53;;;;;;;;;;5105109;28;20122;-50
2023/10/10 00:44:37;;;;;;;14.00;4.32;;;;;;;;;;5101499;28;20532;-51
2023/10/10 00:47:12;;;;;;;16.63;4.05;;;;;;;;;;5101429;28;20094;-51
2023/10/10 00:49:43;;;;;;;13.00;3.58;;;;;;;;;;5100910;28;20051;-54
2023/10/10 00:52:12;;;;;;;11.48;3.83;;;;;;;;;;5106457;27;20043;-55
2023/10/10 00:54:43;;;;;;;14.00;4.23;;;;;;;;;;5106857;28;20087;-51
2023/10/10 00:57:16;;;;;;;14.55;4.35;;;;;;;;;;5112921;28;20455;-48
2023/10/10 00:59:45;;;;;;;11.88;4.00;;;;;;;;;;5104476;28;20044;-49
2023/10/10 01:02:14;;;;;;;14.43;4.68;;;;;;;;;;5112516;28;20043;-55
2023/10/10 01:04:48;;;;;;;17.67;4.60;;;;;;;;;;5112841;28;20050;-53
2023/10/10 01:07:18;;;;;;;16.70;4.10;;;;;;;;;;5111830;28;20127;-51
2023/10/10 01:09:55;;;;;;;13.77;4.43;;;;;;;;;;5103787;28;20063;-53
2023/10/10 01:12:22;;;;;;;13.63;4.00;;;;;;;;;;5110402;28;20418;-52
2023/10/10 01:14:54;;;;;;;15.38;3.58;;;;;;;;;;5107211;28;20055;-52
2023/10/10 01:17:25;;;;;;;11.10;4.05;;;;;;;;;;5112727;28;20048;-53
2023/10/10 01:19:52;;;;;;;11.70;3.67;;;;;;;;;;5112597;28;20150;-49
2023/10/10 01:22:36;;;;;;;12.30;4.20;;;;;;;;;;5112440;28;20050;-54
2023/10/10 01:25:19;;;;;;;13.40;4.50;;;;;;;;;;5112856;28;20044;-49
2023/10/10 01:27:47;;;;;;;14.05;4.22;;;;;;;;;;5100629;28;20508;-54
2023/10/10 01:30:17;;;;;;;14.23;4.55;;;;;;;;;;5101333;28;20082;-52
2023/10/10 01:32:50;;;;;;;13.07;5.85;;;;;;;;;;5103979;28;20126;-51
2023/10/10 01:35:17;;;;;;;13.73;3.90;;;;;;;;;;5111617;28;20132;-53
2023/10/10 01:37:54;;;;;;;12.48;3.70;;;;;;;;;;5112260;28;20066;-54
2023/10/10 01:40:20;;;;;;;12.93;3.53;;;;;;;;;;5112229;28;20044;-50
2023/10/10 01:42:53;;;;;;;13.68;4.45;;;;;;;;;;5111785;28;20065;-53
2023/10/10 01:45:20;;;;;;;18.17;4.60;;;;;;;;;;5112291;28;20552;-52
2023/10/10 01:47:57;;;;;;;11.48;4.22;;;;;;;;;;5112086;28;20073;-49
2023/10/10 01:50:30;;;;;;;13.30;4.10;;;;;;;;;;5109656;28;20054;-49
2023/10/10 01:52:58;;;;;;;13.25;4.28;;;;;;;;;;5098696;28;20047;-53
2023/10/10 01:55:25;;;;;;;12.00;4.22;;;;;;;;;;5100731;28;20048;-54
2023/10/10 01:57:52;;;;;;;12.82;4.13;;;;;;;;;;5098342;28;20047;-52
2023/10/10 02:00:26;;;;;;;15.15;4.70;;;;;;;;;;5110115;28;20363;-51
2023/10/10 02:02:54;;;;;;;18.92;4.75;;;;;;;;;;5091603;28;20048;-49
2023/10/10 02:05:32;;;;;;;13.07;4.32;;;;;;;;;;5091441;28;20040;-50
2023/10/10 02:08:00;;;;;;;12.98;3.92;;;;;;;;;;5092325;28;20056;-53
2023/10/10 02:10:29;;;;;;;12.85;3.60;;;;;;;;;;5112055;28;20495;-49
2023/10/10 02:12:59;;;;;;;11.50;3.80;;;;;;;;;;5111859;28;20508;-51
2023/10/10 02:15:32;;;;;;;8.95;3.58;;;;;;;;;;5103444;28;20503;-55
2023/10/10 02:18:04;;;;;;;11.98;3.70;;;;;;;;;;5111883;28;20487;-54
2023/10/10 02:20:49;;;;;;;14.32;4.45;;;;;;;;;;5112425;28;20543;-51
2023/10/10 02:23:24;;;;;;;12.00;4.30;;;;;;;;;;5111600;28;20048;-53
2023/10/10 02:25:53;;;;;;;14.18;3.85;;;;;;;;;;5111737;28;20043;-52
2023/10/10 02:28:42;;;;;;;16.88;4.40;;;;;;;;;;5111517;28;20047;-51
2023/10/10 02:31:10;;;;;;;11.38;4.10;;;;;;;;;;5103203;28;20048;-51
2023/10/10 02:33:37;;;;;;;15.35;4.55;;;;;;;;;;5111672;28;20552;-54
2023/10/10 02:36:07;;;;;;;11.43;4.00;;;;;;;;;;5111924;28;20044;-55
2023/10/10 02:38:39;;;;;;;11.65;3.92;;;;;;;;;;5110991;28;20043;-51
2023/10/10 02:41:25;;;;;;;14.00;4.20;;;;;;;;;;5102694;28;20048;-53
2023/10/10 02:44:04;;;;;;;11.85;3.70;;;;;;;;;;5105924;28;20123;-54
2023/10/10 02:46:37;;;;;;;14.38;3.90;;;;;;;;;;5099594;28;20043;-55
2023/10/10 02:49:12;;;;;;;14.70;4.38;;;;;;;;;;5094807;28;20109;-53
2023/10/10 02:51:41;;;;;;;14.57;3.90;;;;;;;;;;5108100;28;20419;-55
2023/10/10 02:54:31;;;;;;;15.93;4.00;;;;;;;;;;5115477;28;20039;-54
2023/10/10 02:56:59;;;;;;;14.30;4.43;;;;;;;;;;5115192;28;20134;-54
2023/10/10 02:59:31;;;;;;;10.13;4.10;;;;;;;;;;5115316;28;20494;-52
2023/10/10 03:02:04;;;;;;;12.30;4.43;;;;;;;;;;5114930;28;20047;-50
2023/10/10 03:07:15;;;;;;;;;;;;;;;;;;5106142;28;20583;-54
2023/10/10 03:10:12;;;;;;;;;;;;;;;;;;5107078;28;19930;-50
2023/10/10 03:12:30;;;;;;;14.32;4.93;;;;;;;;;;5114783;28;19923;-52
2023/10/10 03:15:12;;;;;;;12.85;4.43;;;;;;;;;;5114922;28;20096;-48
2023/10/10 03:17:45;;;;;;;12.52;4.38;;;;;;;;;;5107541;28;20127;-53
2023/10/10 03:20:25;;;;;;;12.75;4.28;;;;;;;;;;5115021;28;20054;-54
2023/10/10 03:23:18;;;;;;;12.65;4.93;;;;;;;;;;5099818;28;20052;-50
2023/10/10 03:25:49;;;;;;;9.82;3.70;;;;;;;;;;5108673;28;20052;-49
2023/10/10 03:28:20;;;;;;;11.70;3.97;;;;;;;;;;5113212;28;20291;-50
2023/10/10 03:30:55;;;;;;;;;;;;;;;;;;5094793;28;20056;-48
2023/10/10 03:33:37;;;;;;;11.88;4.70;;;;;;;;;;5096642;28;19970;-53
2023/10/10 03:36:14;;;;;;;19.30;4.97;;;;;;;;;;5114716;28;20050;-50
2023/10/10 05:23:34;;;;;;;14.63;4.93;;;;;;;;;;5072450;28;20040;-58
2023/10/10 05:26:02;;;;;;;17.30;5.05;;;;;;;;;;5105167;28;20048;-58
2023/10/10 05:28:32;;;;;;;15.65;4.82;;;;;;;;;;5112382;28;20090;-57
2023/10/10 05:30:59;;;;;;;18.08;5.72;;;;;;;;;;5104525;28;20040;-57
2023/10/10 05:33:27;;;;;;;19.80;4.90;;;;;;;;;;5112813;28;20483;-57
2023/10/10 05:36:00;;;;;;;18.05;5.47;;;;;;;;;;5106307;28;20563;-58
2023/10/10 05:38:27;;;;;;;14.95;4.75;;;;;;;;;;5103241;27;20475;-55
2023/10/10 05:40:53;;;;;;;16.80;5.55;;;;;;;;;;5114530;27;20054;-58
2023/10/10 05:43:26;;;;;;;12.98;4.88;;;;;;;;;;5112885;27;20509;-58
2023/10/10 05:45:53;;;;;;;12.63;5.25;;;;;;;;;;5112688;28;20443;-58
2023/10/10 05:48:20;;;;;;;15.30;5.20;;;;;;;;;;5112741;28;20043;-54
2023/10/10 05:50:48;;;;;;;17.77;5.65;;;;;;;;;;5112595;28;20047;-58
2023/10/10 05:53:16;;;;;;;13.63;6.00;;;;;;;;;;5099281;28;20048;-58
2023/10/10 05:55:43;;;;;;;15.75;5.70;;;;;;;;;;5112338;28;20051;-57
2023/10/10 05:58:12;;;;;;;18.15;5.75;;;;;;;;;;5095770;28;20058;-58
2023/10/10 06:00:41;;;;;;;16.63;5.20;;;;;;;;;;5112109;28;20047;-57
2023/10/10 06:03:08;;;;;;;13.15;5.88;;;;;;;;;;5111745;28;20138;-57
2023/10/10 06:05:35;;;;;;;15.82;5.82;;;;;;;;;;5100582;28;20515;-54
2023/10/10 06:08:02;;;;;;;18.23;6.03;;;;;;;;;;5100397;28;20047;-57
2023/10/10 06:10:32;;;;;;;15.18;6.18;;;;;;;;;;5103128;28;20069;-53
2023/10/10 06:13:03;;;;;;;15.02;6.18;;;;;;;;;;5103721;28;20082;-54
2023/10/10 06:15:33;;;;;;;19.00;6.22;;;;;;;;;;5109327;28;20044;-57
2023/10/10 06:18:08;;;;;;;15.67;6.17;;;;;;;;;;5107547;28;20075;-57
2023/10/10 06:20:40;;;;;;;14.85;5.47;;;;;;;;;;5104516;28;20506;-58
2023/10/10 06:23:08;;;;;;;23.17;6.38;;;;;;;;;;5103333;28;20047;-57
2023/10/10 06:25:36;;;;;;;15.25;8.23;;;;;;;;;;5104258;28;20096;-58
2023/10/10 06:28:05;;;;;;;14.88;7.43;;;;;;;;;;5112056;28;20047;-55
2023/10/10 06:30:36;;;;;;;21.52;7.90;;;;;;;;;;5108278;28;20119;-56
2023/10/10 06:33:10;;;;;;;19.25;7.55;;;;;;;;;;5099543;28;20314;-55
2023/10/10 06:35:37;;;;;;;12.93;6.57;;;;;;;;;;5104307;28;20051;-56
2023/10/10 06:38:10;;;;;;;21.05;7.07;;;;;;;;;;5111573;28;20410;-56
2023/10/10 06:40:42;;;;;;;15.90;5.53;;;;;;;;;;5103975;28;20415;-57
2023/10/10 06:43:09;;;;;;;15.00;5.93;;;;;;;;;;5111361;28;20134;-59
2023/10/10 06:45:37;;;;;;;16.52;5.38;;;;;;;;;;5108572;28;20039;-56
2023/10/10 06:48:04;;;;;;;15.50;6.53;;;;;;;;;;5117070;28;20486;-57
2023/10/10 06:50:31;;;;;;;12.60;5.75;;;;;;;;;;5119274;28;20546;-59
2023/10/10 06:53:00;;;;;;;15.90;6.82;;;;;;;;;;5109789;28;20120;-58
2023/10/10 06:55:36;;;;;;;13.00;5.60;;;;;;;;;;5113538;28;20077;-58
2023/10/10 06:58:05;;;;;;;16.67;6.93;;;;;;;;;;5115444;28;20054;-58
2023/10/10 07:00:45;;;;;;;18.50;5.45;;;;;;;;;;5113632;28;20124;-59
2023/10/10 07:03:11;;;;;;;16.23;6.17;;;;;;;;;;5113292;28;20047;-58
2023/10/10 07:05:39;;;;;;;14.10;5.00;;;;;;;;;;5123811;28;20058;-59
2023/10/10 07:08:24;;;;;;;13.05;5.18;;;;;;;;;;5120254;28;20048;-58
2023/10/10 07:10:53;;;;;;;13.48;4.68;;;;;;;;;;5112372;28;20316;-56
2023/10/10 07:13:29;;;;;;;17.65;5.97;;;;;;;;;;5110239;28;20104;-56
2023/10/10 07:15:56;;;;;;;17.45;5.88;;;;;;;;;;5098609;28;20044;-56
2023/10/10 07:18:25;;;;;;;16.05;5.78;;;;;;;;;;5111769;28;20126;-58
2023/10/10 07:21:04;;;;;;;21.42;6.25;;;;;;;;;;5114832;28;20054;-56
2023/10/10 07:23:38;;;;;;;16.30;5.78;;;;;;;;;;5102768;28;20058;-59
2023/10/10 07:26:18;;;;;;;15.13;5.97;;;;;;;;;;5103343;28;20052;-57
2023/10/10 07:28:49;;;;;;;12.43;5.25;;;;;;;;;;5105443;28;20048;-59
2023/10/10 07:31:18;;;;;;;13.82;4.63;;;;;;;;;;5102897;28;20446;-57
2023/10/10 07:33:54;;;;;;;13.40;5.32;;;;;;;;;;5112609;28;20131;-57
2023/10/10 07:36:24;;;;;;;15.68;4.43;;;;;;;;;;5112984;28;20061;-58
2023/10/10 07:38:54;;;;;;;;;;;;;;;;;;5109709;28;20445;-58
2023/10/10 07:41:24;;;;;;;16.43;4.63;;;;;;;;;;5096084;28;19924;-61
2023/10/10 07:43:52;;;;;;;14.43;4.45;;;;;;;;;;5103260;28;20276;-57
2023/10/10 07:46:22;;;;;;;17.55;5.30;;;;;;;;;;5113260;27;20089;-58
2023/10/10 07:48:53;;;;;;;15.00;4.38;;;;;;;;;;5118135;27;20035;-56
2023/10/10 07:51:28;;;;;;;15.68;4.53;;;;;;;;;;5113095;27;20071;-58
2023/10/10 07:54:02;;;;;;;16.60;5.38;;;;;;;;;;5114770;27;20044;-56
2023/10/10 07:56:31;;;;;;;13.85;4.60;;;;;;;;;;5114629;27;21856;-64
2023/10/10 07:58:59;;;;;;;15.13;5.28;;;;;;;;;;5115656;27;20085;-64
2023/10/10 08:01:27;;;;;;;16.58;5.38;;;;;;;;;;5114976;27;20052;-63
2023/10/10 08:03:54;;;;;;;13.25;4.50;;;;;;;;;;5115462;27;20043;-57
2023/10/10 08:06:22;;;;;;;15.23;4.75;;;;;;;;;;5115028;27;20081;-60
2023/10/10 08:09:02;;;;;;;14.38;4.65;;;;;;;;;;5112378;27;20051;-59
2023/10/10 08:11:35;;;;;;;18.40;5.82;;;;;;;;;;5111481;27;20141;-57
2023/10/10 08:14:07;;;;;;;14.90;4.78;;;;;;;;;;5111127;28;20407;-57
2023/10/10 08:16:34;;;;;;;13.43;4.80;;;;;;;;;;5107779;27;20121;-59
2023/10/10 08:19:04;;;;;;;16.15;4.28;;;;;;;;;;5115404;27;20042;-58
2023/10/10 08:21:36;;;;;;;11.20;4.10;;;;;;;;;;5105694;28;20048;-56
2023/10/10 08:24:04;;;;;;;11.45;4.00;;;;;;;;;;5110989;28;20048;-58
2023/10/10 08:26:38;;;;;;;14.70;4.43;;;;;;;;;;5110878;28;20729;-55
2023/10/10 08:29:07;;;;;;;15.95;4.88;;;;;;;;;;5116134;27;20437;-54
2023/10/10 08:31:36;;;;;;;12.40;4.18;;;;;;;;;;5113493;27;20473;-58
2023/10/10 08:34:03;;;;;;;12.88;5.22;;;;;;;;;;5111190;27;20063;-58
2023/10/10 08:36:29;;;;;;;16.70;4.30;;;;;;;;;;5113053;27;20475;-57
2023/10/10 08:38:58;;;;;;;16.35;4.10;;;;;;;;;;5110850;27;20053;-58
2023/10/10 08:41:27;;;;;;;14.07;4.63;;;;;;;;;;5112719;27;20122;-58
2023/10/10 08:43:57;;;;;;;19.30;5.05;;;;;;;;;;5110540;28;20394;-57
2023/10/10 08:46:30;;;;;;;13.38;3.95;;;;;;;;;;5109833;27;20418;-58
2023/10/10 08:48:58;;;;;;;15.80;4.80;;;;;;;;;;5114002;27;20035;-56
2023/10/10 08:51:27;;;;;;;15.68;5.10;;;;;;;;;;5108777;27;20051;-58
2023/10/10 08:53:54;;;;;;;15.35;4.55;;;;;;;;;;5110322;28;20040;-56
2023/10/10 08:56:21;;;;;;;16.63;5.85;;;;;;;;;;5108809;28;20040;-59
2023/10/10 08:58:48;;;;;;;15.05;4.60;;;;;;;;;;5109882;28;20118;-59
2023/10/10 09:01:15;;;;;;;13.45;4.85;;;;;;;;;;5107350;28;20135;-58
2023/10/10 09:03:45;;;;;;;12.10;4.57;;;;;;;;;;5109936;28;20429;-59
2023/10/10 09:06:15;;;;;;;15.50;5.17;;;;;;;;;;5107089;28;20390;-59
2023/10/10 09:08:44;;;;;;;14.75;4.97;;;;;;;;;;5108300;28;20044;-58
2023/10/10 09:11:11;;;;;;;13.15;4.10;;;;;;;;;;5111939;27;20093;-57
2023/10/10 09:13:51;;;;;;;14.48;5.07;;;;;;;;;;5112742;27;20040;-57
2023/10/10 09:16:19;;;;;;;12.82;5.55;;;;;;;;;;5109825;28;20047;-57
2023/10/10 09:19:08;;;;;;;11.75;3.80;;;;;;;;;;5109664;28;20479;-58
2023/10/10 09:21:46;;;;;;;15.27;4.30;;;;;;;;;;5104025;28;20040;-55
2023/10/10 09:24:26;;;;;;;15.52;4.50;;;;;;;;;;5113460;27;20039;-59
2023/10/10 09:26:56;;;;;;;21.45;4.78;;;;;;;;;;5113069;27;20047;-57
2023/10/10 09:29:30;;;;;;;14.93;4.10;;;;;;;;;;5103160;27;20067;-59
2023/10/10 09:31:59;;;;;;;15.65;4.55;;;;;;;;;;5108991;27;20466;-59
2023/10/10 09:34:28;;;;;;;12.45;4.43;;;;;;;;;;5110752;27;20593;-59
2023/10/10 09:36:58;;;;;;;13.93;4.82;;;;;;;;;;5110872;27;20126;-57
2023/10/10 09:39:36;;;;;;;14.13;4.40;;;;;;;;;;5108690;27;20044;-58
2023/10/10 09:42:06;;;;;;;11.07;4.30;;;;;;;;;;5107200;27;20044;-58
2023/10/10 09:44:53;;;;;;;15.75;4.53;;;;;;;;;;5108901;27;20063;-56
2023/10/10 09:52:53;;;;;;;15.82;5.43;;;;;;;;;;5103022;28;20105;-58
2023/10/10 09:58:16;;;;;;;17.42;4.65;;;;;;;;;;5102880;28;20050;-56
2023/10/10 10:00:47;;;;;;;11.88;4.07;;;;;;;;;;5105846;28;20130;-59
2023/10/10 10:03:31;;;;;;;14.32;4.15;;;;;;;;;;5104685;28;20043;-59
2023/10/10 10:06:05;;;;;;;13.68;4.25;;;;;;;;;;5100052;28;20046;-57
2023/10/10 10:08:43;;;;;;;14.07;4.90;;;;;;;;;;5100707;28;20048;-58
2023/10/10 10:11:17;;;;;;;13.35;4.13;;;;;;;;;;5105394;28;20052;-56
2023/10/10 10:13:54;;;;;;;12.70;3.92;;;;;;;;;;5103047;28;20148;-57
2023/10/10 10:16:32;;;;;;;18.10;4.35;;;;;;;;;;5103231;28;20391;-58
2023/10/10 10:19:12;;;;;;;13.82;4.38;;;;;;;;;;5107305;28;20487;-57
2023/10/10 10:21:52;;;;;;;13.55;4.57;;;;;;;;;;5105320;28;20047;-56
2023/10/10 10:24:26;;;;;;;12.88;5.30;;;;;;;;;;5111011;27;20059;-59
2023/10/10 10:27:23;;;;;;;11.38;4.50;;;;;;;;;;5107877;27;20059;-59
2023/10/10 10:30:14;;;;;;;13.02;5.07;;;;;;;;;;5110748;27;20088;-57
2023/10/10 10:32:42;;;;;;;15.18;4.28;;;;;;;;;;5104776;28;20046;-57
2023/10/10 10:35:12;;;;;;;13.88;4.57;;;;;;;;;;5105547;28;20518;-59
2023/10/10 10:37:42;;;;;;;14.65;4.60;;;;;;;;;;5102392;28;20040;-57
2023/10/10 10:40:24;;;;;;;12.52;4.18;;;;;;;;;;5105225;28;20046;-58
2023/10/10 10:42:51;;;;;;;13.70;4.13;;;;;;;;;;5106292;28;20062;-59
2023/10/10 10:45:33;;;;;;;12.68;3.88;;;;;;;;;;5109129;28;20127;-59
2023/10/10 10:48:05;;;;;;;14.93;4.75;;;;;;;;;;5105045;28;20093;-58
2023/10/10 10:50:56;;;;;;;19.23;4.82;;;;;;;;;;5108358;28;20048;-58
2023/10/10 10:53:35;;;;;;;16.25;4.68;;;;;;;;;;5111226;28;20610;-58
2023/10/10 10:59:11;;;;;;;13.35;4.90;;;;;;;;;;5112510;28;20415;-58
2023/10/10 11:01:43;;;;;;;11.82;4.35;;;;;;;;;;5109982;28;20558;-59
2023/10/10 11:04:14;;;;;;;10.75;4.05;;;;;;;;;;5111869;28;20156;-58
2023/10/10 11:06:50;;;;;;;12.05;4.43;;;;;;;;;;5108010;28;20040;-57
2023/10/10 11:09:28;;;;;;;14.82;5.35;;;;;;;;;;5108583;28;20047;-57
2023/10/10 11:11:58;;;;;;;11.23;4.25;;;;;;;;;;5112144;28;20050;-56
2023/10/10 11:14:28;;;;;;;;;;;;;;;;;;5110629;27;20044;-59
2023/10/10 11:16:57;;;;;;;11.35;4.80;;;;;;;;;;5106027;28;20274;-55
2023/10/10 11:19:38;;;;;;;11.25;4.68;;;;;;;;;;5110235;28;20055;-59
2023/10/10 11:22:06;;;;;;;14.00;4.13;;;;;;;;;;5108735;28;20134;-57
2023/10/10 11:24:34;;;;;;;13.35;4.13;;;;;;;;;;5103855;28;20127;-57
2023/10/10 11:27:13;;;;;;;11.90;4.13;;;;;;;;;;5110970;27;20429;-59
2023/10/10 11:29:42;;;;;;;13.02;4.65;;;;;;;;;;5109095;27;20087;-57
2023/10/10 11:32:12;;;;;;;11.75;4.35;;;;;;;;;;5113631;27;20266;-58
2023/10/10 11:34:44;;;;;;;12.18;4.72;;;;;;;;;;5110273;27;20043;-56
2023/10/10 11:37:13;;;;;;;12.05;3.90;;;;;;;;;;5107188;27;20054;-54
2023/10/10 11:39:57;;;;;;;11.10;4.47;;;;;;;;;;5111918;27;20043;-57
2023/10/10 11:42:28;;;;;;;18.55;5.00;;;;;;;;;;5102767;28;20052;-58
2023/10/10 11:45:01;;;;;;;15.05;4.65;;;;;;;;;;5112237;28;20388;-58
2023/10/10 11:47:28;;;;;;;13.85;4.68;;;;;;;;;;5105294;28;20039;-58
2023/10/10 11:50:00;;;;;;;12.82;5.00;;;;;;;;;;5108764;28;20389;-57
2023/10/10 11:52:28;;;;;;;14.25;4.50;;;;;;;;;;5109575;28;20055;-59
2023/10/10 11:54:58;;;;;;;11.75;4.25;;;;;;;;;;5105928;28;20054;-55
2023/10/10 11:57:28;;;;;;;12.30;4.80;;;;;;;;;;5110716;28;20043;-60
2023/10/10 11:59:58;;;;;;;20.25;4.97;;;;;;;;;;5110910;27;20079;-58
2023/10/10 12:02:29;;;;;;;12.48;3.92;;;;;;;;;;5106652;27;20056;-63
2023/10/10 12:04:56;;;;;;;13.85;5.05;;;;;;;;;;5108560;27;20047;-64
2023/10/10 12:07:24;;;;;;;11.38;5.15;;;;;;;;;;5112330;27;20123;-56
2023/10/10 12:10:07;;;;;;;11.68;4.55;;;;;;;;;;5111185;27;20048;-59
2023/10/10 12:12:35;;;;;;;12.65;4.57;;;;;;;;;;5113028;27;20433;-59
2023/10/10 12:15:02;;;;;;;12.38;4.20;;;;;;;;;;5110267;27;20396;-56
2023/10/10 12:17:28;;;;;;;11.48;4.20;;;;;;;;;;5113142;27;20052;-58
2023/10/10 12:19:56;;;;;;;8.73;4.20;;;;;;;;;;5113111;27;20390;-54
2023/10/10 12:22:24;;;;;;;12.75;4.30;;;;;;;;;;5111143;27;20049;-57
2023/10/10 12:24:51;;;;;;;15.18;4.90;;;;;;;;;;5107032;27;20050;-57
2023/10/10 12:27:18;;;;;;;13.98;4.65;;;;;;;;;;5108653;28;20040;-59
2023/10/10 12:29:47;;;;;;;14.50;4.95;;;;;;;;;;5105825;28;20134;-60
2023/10/10 12:32:18;;;;;;;11.48;4.20;;;;;;;;;;5110703;27;20119;-57
2023/10/10 12:34:47;;;;;;;11.45;4.32;;;;;;;;;;5108976;27;20052;-56
2023/10/10 12:37:16;;;;;;;11.82;4.43;;;;;;;;;;5110513;27;20058;-54
2023/10/10 12:39:43;;;;;;;15.98;4.32;;;;;;;;;;5109830;27;20537;-55
2023/10/10 12:42:09;;;;;;;14.85;4.57;;;;;;;;;;5111149;27;20067;-52
2023/10/10 12:44:36;;;;;;;13.13;4.07;;;;;;;;;;5108710;27;20122;-52
2023/10/10 12:47:07;;;;;;;11.32;4.45;;;;;;;;;;5107771;27;20417;-56
2023/10/10 12:49:36;;;;;;;13.20;4.57;;;;;;;;;;5111847;27;20130;-56
2023/10/10 12:52:11;;;;;;;12.25;4.95;;;;;;;;;;5109990;27;20051;-56
2023/10/10 12:54:38;;;;;;;13.63;4.30;;;;;;;;;;5110726;27;20086;-52
2023/10/10 12:57:13;;;;;;;14.20;4.20;;;;;;;;;;5112235;27;20130;-55
2023/10/10 12:59:39;;;;;;;9.77;4.32;;;;;;;;;;5109454;27;20575;-54
2023/10/10 13:02:13;;;;;;;12.00;3.70;;;;;;;;;;5109815;28;20043;-55
2023/10/10 13:04:45;;;;;;;11.85;3.83;;;;;;;;;;5109191;27;20044;-53
2023/10/10 13:07:15;;;;;;;11.88;4.32;;;;;;;;;;5108720;27;20424;-56
2023/10/10 13:09:46;;;;;;;9.02;4.13;;;;;;;;;;5109716;28;20092;-55
2023/10/10 13:12:18;;;;;;;12.63;4.40;;;;;;;;;;5109246;27;20546;-55
2023/10/10 13:14:50;;;;;;;13.88;4.63;;;;;;;;;;5105867;27;20538;-55
2023/10/10 13:17:29;;;;;;;11.25;4.70;;;;;;;;;;5108154;27;20046;-56
2023/10/10 13:19:58;;;;;;;12.48;4.35;;;;;;;;;;5109792;27;20050;-56
2023/10/10 13:22:29;;;;;;;12.00;4.18;;;;;;;;;;5108214;28;20054;-56
2023/10/10 13:24:55;;;;;;;11.98;5.00;;;;;;;;;;5110056;27;20097;-56
2023/10/10 13:27:25;;;;;;;12.90;4.93;;;;;;;;;;5109943;28;20414;-56
2023/10/10 13:29:51;;;;;;;14.05;4.18;;;;;;;;;;5109576;28;20210;-55
2023/10/10 13:32:20;;;;;;;10.43;3.90;;;;;;;;;;5105701;28;20070;-54
2023/10/10 13:34:46;;;;;;;11.43;3.72;;;;;;;;;;5105551;28;20249;-55
2023/10/10 13:37:13;;;;;;;15.02;4.65;;;;;;;;;;5109858;27;20426;-54
2023/10/10 13:39:43;;;;;;;15.82;4.63;;;;;;;;;;5109947;27;20544;-56
2023/10/10 13:42:14;;;;;;;11.50;4.55;;;;;;;;;;5109959;27;20138;-55
2023/10/10 13:44:41;;;;;;;12.80;4.18;;;;;;;;;;5106528;28;20114;-55
2023/10/10 13:47:07;;;;;;;12.85;4.00;;;;;;;;;;5112350;27;20111;-54
2023/10/10 13:49:44;;;;;;;16.02;4.72;;;;;;;;;;5106853;28;20122;-54
2023/10/10 13:52:11;;;;;;;15.48;4.35;;;;;;;;;;5108470;28;20051;-55
2023/10/10 13:54:38;;;;;;;10.23;3.30;;;;;;;;;;5106464;27;20096;-63
2023/10/10 13:57:06;;;;;;;13.43;4.05;;;;;;;;;;5108224;27;20509;-54
2023/10/10 13:59:33;;;;;;;15.90;4.88;;;;;;;;;;5106457;28;20055;-51
2023/10/10 14:02:03;;;;;;;13.93;4.38;;;;;;;;;;5108553;28;20168;-52
2023/10/10 14:04:45;;;;;;;14.27;4.20;;;;;;;;;;5104352;28;20066;-54
2023/10/10 14:07:14;;;;;;;13.50;4.20;;;;;;;;;;5102545;28;20172;-51
2023/10/10 14:09:47;;;;;;;12.80;4.10;;;;;;;;;;5103051;28;20158;-54
2023/10/10 14:12:20;;;;;;;19.55;4.28;;;;;;;;;;5107053;28;20043;-54
2023/10/10 14:14:47;;;;;;;13.02;3.80;;;;;;;;;;5108511;28;20433;-55
2023/10/10 14:17:14;;;;;;;15.77;4.97;;;;;;;;;;5110200;27;20579;-50
2023/10/10 14:19:41;;;;;;;13.75;4.15;;;;;;;;;;5107717;27;20058;-57
2023/10/10 14:22:12;;;;;;;15.45;4.07;;;;;;;;;;5108611;28;20047;-53
2023/10/10 14:24:40;;;;;;;10.25;4.43;;;;;;;;;;5104081;28;20087;-50
2023/10/10 14:27:07;;;;;;;15.63;4.43;;;;;;;;;;5099036;28;20039;-51
2023/10/10 14:29:41;;;;;;;15.85;4.25;;;;;;;;;;5106171;28;20434;-51
2023/10/10 14:32:10;;;;;;;14.35;4.05;;;;;;;;;;5108014;28;20556;-56
2023/10/10 14:34:39;;;;;;;12.63;3.72;;;;;;;;;;5106791;28;20120;-50
2023/10/10 14:37:05;;;;;;;12.63;3.92;;;;;;;;;;5098551;28;20058;-51
2023/10/10 14:39:35;;;;;;;18.30;4.80;;;;;;;;;;5102875;28;20134;-55
2023/10/10 14:42:04;;;;;;;13.95;5.03;;;;;;;;;;5105650;28;20046;-54
2023/10/10 14:44:34;;;;;;;12.25;3.85;;;;;;;;;;5108385;28;20047;-52
2023/10/10 14:47:03;;;;;;;15.82;4.65;;;;;;;;;;5115296;28;20123;-56
2023/10/10 14:49:30;;;;;;;13.13;4.15;;;;;;;;;;5109602;28;20193;-54
2023/10/10 14:52:03;;;;;;;18.30;4.95;;;;;;;;;;5112102;28;20468;-53
2023/10/10 14:54:30;;;;;;;12.27;4.47;;;;;;;;;;5112134;28;20043;-55
2023/10/10 14:56:57;;;;;;;14.65;3.90;;;;;;;;;;5110243;28;20036;-54
2023/10/10 14:59:31;;;;;;;16.02;4.45;;;;;;;;;;5110151;28;20047;-53
2023/10/10 15:01:59;;;;;;;15.13;4.75;;;;;;;;;;5106266;28;20457;-55
2023/10/10 15:04:28;;;;;;;19.40;4.38;;;;;;;;;;5112561;28;20813;-51
2023/10/10 15:06:55;;;;;;;14.85;4.63;;;;;;;;;;5108184;28;20048;-53
2023/10/10 15:09:24;;;;;;;18.75;4.82;;;;;;;;;;5106908;28;20178;-55
2023/10/10 15:11:52;;;;;;;20.55;4.43;;;;;;;;;;5110385;28;20047;-53
2023/10/10 15:14:19;;;;;;;18.70;4.53;;;;;;;;;;5112059;27;20154;-55
2023/10/10 15:16:48;;;;;;;14.70;4.93;;;;;;;;;;5107731;27;20058;-55
2023/10/10 15:19:15;;;;;;;13.87;4.37;;;;;;;;;;5107161;27;20051;-51
2023/10/10 15:21:47;;;;;;;13.60;5.03;;;;;;;;;;5101745;28;20126;-54
2023/10/10 15:24:15;;;;;;;11.55;4.70;;;;;;;;;;5114724;28;20044;-54
2023/10/10 15:26:45;;;;;;;10.80;3.70;;;;;;;;;;5111019;28;20047;-52
2023/10/10 15:29:14;;;;;;;13.30;4.18;;;;;;;;;;5113717;28;20568;-53
2023/10/10 15:31:41;;;;;;;11.95;4.18;;;;;;;;;;5110818;28;20047;-52
2023/10/10 15:34:10;;;;;;;12.93;4.40;;;;;;;;;;5114099;28;20092;-53
2023/10/10 15:36:37;;;;;;;14.85;5.20;;;;;;;;;;5109122;28;20043;-54
2023/10/10 15:39:06;;;;;;;15.80;4.22;;;;;;;;;;5109559;28;20043;-50
2023/10/10 15:41:36;;;;;;;13.50;3.65;;;;;;;;;;5111532;28;20056;-52
2023/10/10 15:44:03;;;;;;;12.63;4.15;;;;;;;;;;5114547;28;20039;-55
2023/10/10 15:46:31;;;;;;;12.35;3.92;;;;;;;;;;5109798;28;20484;-50
2023/10/10 15:48:59;;;;;;;16.65;4.25;;;;;;;;;;5110224;28;20074;-55
2023/10/10 15:51:29;;;;;;;13.02;4.75;;;;;;;;;;5114795;28;20132;-54
2023/10/10 15:53:56;;;;;;;19.40;4.55;;;;;;;;;;5112797;28;20153;-49
2023/10/10 15:56:27;;;;;;;15.88;4.72;;;;;;;;;;5108046;28;20473;-53
2023/10/10 15:58:54;;;;;;;17.52;5.25;;;;;;;;;;5106966;28;20033;-51
2023/10/10 16:01:23;;;;;;;16.70;4.65;;;;;;;;;;5106899;28;20044;-56
2023/10/10 16:03:52;;;;;;;18.50;4.43;;;;;;;;;;5104814;28;20043;-57
2023/10/10 16:06:19;;;;;;;15.63;4.68;;;;;;;;;;5108519;28;20122;-57
2023/10/10 16:08:49;;;;;;;13.75;4.55;;;;;;;;;;5104635;28;20054;-57
2023/10/10 16:11:16;;;;;;;13.30;4.65;;;;;;;;;;5108107;28;20044;-48
2023/10/10 16:13:46;;;;;;;17.63;4.60;;;;;;;;;;5111458;28;20058;-50
2023/10/10 16:16:13;;;;;;;13.95;5.53;;;;;;;;;;5106915;28;20701;-51
2023/10/10 16:18:41;;;;;;;15.13;4.90;;;;;;;;;;5109730;28;20410;-48
2023/10/10 16:21:08;;;;;;;15.65;4.40;;;;;;;;;;5105967;28;20075;-55
2023/10/10 16:23:37;;;;;;;15.13;4.35;;;;;;;;;;5111465;28;20079;-53
2023/10/10 16:26:05;;;;;;;15.90;4.65;;;;;;;;;;5109515;28;20118;-52
2023/10/10 16:28:35;;;;;;;18.80;4.68;;;;;;;;;;5111860;28;20402;-52
2023/10/10 16:31:06;;;;;;;16.65;5.10;;;;;;;;;;5111122;28;20422;-51
2023/10/10 16:33:34;;;;;;;19.05;5.35;;;;;;;;;;5111826;28;20501;-51
2023/10/10 16:36:02;;;;;;;20.15;5.53;;;;;;;;;;5111479;28;20044;-50
2023/10/10 16:38:35;;;;;;;15.45;5.60;;;;;;;;;;5111511;28;20526;-50
2023/10/10 16:41:01;;;;;;;13.25;5.53;;;;;;;;;;5107695;28;20488;-49
2023/10/10 16:43:29;;;;;;;16.02;6.65;;;;;;;;;;5111578;28;20355;-49
2023/10/10 16:45:56;;;;;;;19.23;5.50;;;;;;;;;;5111427;28;20054;-53
2023/10/10 16:48:23;;;;;;;16.15;5.90;;;;;;;;;;5110559;28;20066;-53
2023/10/10 16:50:49;;;;;;;15.40;5.20;;;;;;;;;;5111307;28;20142;-50
2023/10/10 16:53:16;;;;;;;17.75;6.03;;;;;;;;;;5110840;28;20043;-52